sensor_id;sensor_type;location;lat;lon;timestamp;P1;durP1;ratioP1;P2;durP2;ratioP2
28960;SDS011;16068;42.896;20.868;2022-07-23T00:00:48;12.45;;;3.05;;
28960;SDS011;16068;42.896;20.868;2022-07-23T00:03:34;7.93;;;2.80;;
28960;SDS011;16068;42.896;20.868;2022-07-23T00:06:20;7.68;;;3.20;;
28960;SDS011;16068;42.896;20.868;2022-07-23T00:09:06;12.05;;;2.90;;
28960;SDS011;16068;42.896;20.868;2022-07-23T00:11:52;7.40;;;2.83;;
28960;SDS011;16068;42.896;20.868;2022-07-23T00:14:38;10.57;;;3.08;;
28960;SDS011;16068;42.896;20.868;2022-07-23T00:17:24;4.85;;;2.78;;
28960;SDS011;16068;42.896;20.868;2022-07-23T00:20:10;8.35;;;2.65;;
28960;SDS011;16068;42.896;20.868;2022-07-23T00:22:56;8.10;;;3.10;;
28960;SDS011;16068;42.896;20.868;2022-07-23T00:25:42;10.40;;;3.00;;
28960;SDS011;16068;42.896;20.868;2022-07-23T00:28:29;10.93;;;3.10;;
28960;SDS011;16068;42.896;20.868;2022-07-23T00:31:14;9.90;;;2.72;;
28960;SDS011;16068;42.896;20.868;2022-07-23T00:34:01;7.05;;;3.08;;
28960;SDS011;16068;42.896;20.868;2022-07-23T00:36:47;8.63;;;2.88;;
28960;SDS011;16068;42.896;20.868;2022-07-23T00:39:33;10.27;;;2.92;;
28960;SDS011;16068;42.896;20.868;2022-07-23T00:42:19;9.27;;;2.70;;
28960;SDS011;16068;42.896;20.868;2022-07-23T00:45:05;13.50;;;3.03;;
28960;SDS011;16068;42.896;20.868;2022-07-23T00:47:52;8.02;;;2.65;;
28960;SDS011;16068;42.896;20.868;2022-07-23T00:50:38;7.30;;;2.67;;
28960;SDS011;16068;42.896;20.868;2022-07-23T00:53:24;4.88;;;2.70;;
28960;SDS011;16068;42.896;20.868;2022-07-23T00:56:10;7.85;;;2.70;;
28960;SDS011;16068;42.896;20.868;2022-07-23T00:58:56;6.82;;;3.08;;
28960;SDS011;16068;42.896;20.868;2022-07-23T01:01:43;5.70;;;2.63;;
28960;SDS011;16068;42.896;20.868;2022-07-23T01:04:29;4.43;;;2.40;;
28960;SDS011;16068;42.896;20.868;2022-07-23T01:07:16;6.70;;;2.80;;
28960;SDS011;16068;42.896;20.868;2022-07-23T01:10:02;7.25;;;2.72;;
28960;SDS011;16068;42.896;20.868;2022-07-23T01:12:51;7.13;;;3.10;;
28960;SDS011;16068;42.896;20.868;2022-07-23T01:15:37;6.53;;;3.03;;
28960;SDS011;16068;42.896;20.868;2022-07-23T01:18:24;7.85;;;2.65;;
28960;SDS011;16068;42.896;20.868;2022-07-23T01:21:11;6.63;;;2.97;;
28960;SDS011;16068;42.896;20.868;2022-07-23T01:23:58;10.02;;;3.08;;
28960;SDS011;16068;42.896;20.868;2022-07-23T01:26:44;5.90;;;3.00;;
28960;SDS011;16068;42.896;20.868;2022-07-23T01:29:31;9.32;;;3.22;;
28960;SDS011;16068;42.896;20.868;2022-07-23T01:32:20;9.38;;;3.20;;
28960;SDS011;16068;42.896;20.868;2022-07-23T01:35:07;6.30;;;2.80;;
28960;SDS011;16068;42.896;20.868;2022-07-23T01:37:54;7.55;;;3.10;;
28960;SDS011;16068;42.896;20.868;2022-07-23T01:40:41;6.32;;;2.75;;
28960;SDS011;16068;42.896;20.868;2022-07-23T01:43:27;7.90;;;2.95;;
28960;SDS011;16068;42.896;20.868;2022-07-23T01:46:14;8.95;;;2.83;;
28960;SDS011;16068;42.896;20.868;2022-07-23T01:49:05;9.13;;;3.10;;
28960;SDS011;16068;42.896;20.868;2022-07-23T01:52:06;8.05;;;2.88;;
28960;SDS011;16068;42.896;20.868;2022-07-23T01:55:03;6.82;;;2.88;;
28960;SDS011;16068;42.896;20.868;2022-07-23T01:57:51;9.68;;;3.35;;
28960;SDS011;16068;42.896;20.868;2022-07-23T02:00:40;4.38;;;2.88;;
28960;SDS011;16068;42.896;20.868;2022-07-23T02:03:26;7.45;;;3.30;;
28960;SDS011;16068;42.896;20.868;2022-07-23T02:06:12;9.38;;;3.00;;
28960;SDS011;16068;42.896;20.868;2022-07-23T02:08:59;6.35;;;3.00;;
28960;SDS011;16068;42.896;20.868;2022-07-23T02:11:45;8.82;;;3.17;;
28960;SDS011;16068;42.896;20.868;2022-07-23T02:14:31;7.30;;;2.95;;
28960;SDS011;16068;42.896;20.868;2022-07-23T02:17:18;7.40;;;3.10;;
28960;SDS011;16068;42.896;20.868;2022-07-23T02:20:04;5.70;;;2.90;;
28960;SDS011;16068;42.896;20.868;2022-07-23T02:22:51;7.03;;;3.33;;
28960;SDS011;16068;42.896;20.868;2022-07-23T02:25:39;6.65;;;3.17;;
28960;SDS011;16068;42.896;20.868;2022-07-23T02:28:25;9.45;;;3.58;;
28960;SDS011;16068;42.896;20.868;2022-07-23T02:31:11;7.38;;;2.97;;
28960;SDS011;16068;42.896;20.868;2022-07-23T02:33:57;9.93;;;3.35;;
28960;SDS011;16068;42.896;20.868;2022-07-23T02:36:44;7.68;;;3.30;;
28960;SDS011;16068;42.896;20.868;2022-07-23T02:39:31;11.77;;;3.45;;
28960;SDS011;16068;42.896;20.868;2022-07-23T02:42:17;8.82;;;3.38;;
28960;SDS011;16068;42.896;20.868;2022-07-23T02:45:03;10.95;;;2.97;;
28960;SDS011;16068;42.896;20.868;2022-07-23T02:47:50;9.77;;;3.33;;
28960;SDS011;16068;42.896;20.868;2022-07-23T02:50:36;16.17;;;4.20;;
28960;SDS011;16068;42.896;20.868;2022-07-23T02:53:22;7.85;;;2.95;;
28960;SDS011;16068;42.896;20.868;2022-07-23T02:56:09;9.75;;;3.53;;
28960;SDS011;16068;42.896;20.868;2022-07-23T02:58:55;13.48;;;3.22;;
28960;SDS011;16068;42.896;20.868;2022-07-23T03:01:41;15.93;;;3.58;;
28960;SDS011;16068;42.896;20.868;2022-07-23T03:04:27;16.90;;;4.20;;
28960;SDS011;16068;42.896;20.868;2022-07-23T03:07:14;16.15;;;3.85;;
28960;SDS011;16068;42.896;20.868;2022-07-23T03:10:00;10.07;;;3.47;;
28960;SDS011;16068;42.896;20.868;2022-07-23T03:12:46;19.33;;;4.65;;
28960;SDS011;16068;42.896;20.868;2022-07-23T03:15:32;20.58;;;4.80;;
28960;SDS011;16068;42.896;20.868;2022-07-23T03:18:18;23.02;;;5.20;;
28960;SDS011;16068;42.896;20.868;2022-07-23T03:21:03;14.55;;;4.30;;
28960;SDS011;16068;42.896;20.868;2022-07-23T03:23:49;21.83;;;4.70;;
28960;SDS011;16068;42.896;20.868;2022-07-23T03:26:37;14.88;;;4.03;;
28960;SDS011;16068;42.896;20.868;2022-07-23T03:29:23;8.80;;;3.47;;
28960;SDS011;16068;42.896;20.868;2022-07-23T03:32:09;19.98;;;4.18;;
28960;SDS011;16068;42.896;20.868;2022-07-23T03:34:56;10.80;;;3.70;;
28960;SDS011;16068;42.896;20.868;2022-07-23T03:37:42;14.25;;;4.50;;
28960;SDS011;16068;42.896;20.868;2022-07-23T03:40:31;18.50;;;4.75;;
28960;SDS011;16068;42.896;20.868;2022-07-23T03:43:17;14.40;;;4.38;;
28960;SDS011;16068;42.896;20.868;2022-07-23T03:46:04;15.18;;;4.25;;
28960;SDS011;16068;42.896;20.868;2022-07-23T03:48:50;20.45;;;4.20;;
28960;SDS011;16068;42.896;20.868;2022-07-23T03:51:42;18.83;;;4.07;;
28960;SDS011;16068;42.896;20.868;2022-07-23T03:54:29;9.25;;;3.83;;
28960;SDS011;16068;42.896;20.868;2022-07-23T03:57:15;11.73;;;3.67;;
28960;SDS011;16068;42.896;20.868;2022-07-23T04:00:02;17.30;;;3.30;;
28960;SDS011;16068;42.896;20.868;2022-07-23T04:02:57;13.15;;;4.03;;
28960;SDS011;16068;42.896;20.868;2022-07-23T04:05:44;15.82;;;4.15;;
28960;SDS011;16068;42.896;20.868;2022-07-23T04:08:32;23.58;;;4.82;;
28960;SDS011;16068;42.896;20.868;2022-07-23T04:11:19;12.00;;;4.13;;
28960;SDS011;16068;42.896;20.868;2022-07-23T04:14:06;11.10;;;4.78;;
28960;SDS011;16068;42.896;20.868;2022-07-23T04:16:52;22.08;;;4.60;;
28960;SDS011;16068;42.896;20.868;2022-07-23T04:19:39;13.45;;;4.78;;
28960;SDS011;16068;42.896;20.868;2022-07-23T04:22:27;13.05;;;4.20;;
28960;SDS011;16068;42.896;20.868;2022-07-23T04:25:13;21.67;;;5.20;;
28960;SDS011;16068;42.896;20.868;2022-07-23T04:28:03;11.88;;;5.10;;
28960;SDS011;16068;42.896;20.868;2022-07-23T04:30:50;20.90;;;4.85;;
28960;SDS011;16068;42.896;20.868;2022-07-23T04:33:36;8.60;;;4.75;;
28960;SDS011;16068;42.896;20.868;2022-07-23T04:36:25;20.10;;;4.97;;
28960;SDS011;16068;42.896;20.868;2022-07-23T04:39:11;22.23;;;4.90;;
28960;SDS011;16068;42.896;20.868;2022-07-23T04:41:59;20.25;;;5.43;;
28960;SDS011;16068;42.896;20.868;2022-07-23T04:44:46;18.30;;;4.78;;
28960;SDS011;16068;42.896;20.868;2022-07-23T04:47:32;24.42;;;5.70;;
28960;SDS011;16068;42.896;20.868;2022-07-23T04:50:19;13.63;;;5.00;;
28960;SDS011;16068;42.896;20.868;2022-07-23T04:53:10;19.75;;;5.15;;
28960;SDS011;16068;42.896;20.868;2022-07-23T04:55:57;27.60;;;5.38;;
28960;SDS011;16068;42.896;20.868;2022-07-23T04:58:43;22.20;;;5.47;;
28960;SDS011;16068;42.896;20.868;2022-07-23T05:01:29;15.55;;;5.13;;
28960;SDS011;16068;42.896;20.868;2022-07-23T05:04:14;25.55;;;5.72;;
28960;SDS011;16068;42.896;20.868;2022-07-23T05:07:02;22.73;;;5.43;;
28960;SDS011;16068;42.896;20.868;2022-07-23T05:09:50;28.55;;;5.47;;
28960;SDS011;16068;42.896;20.868;2022-07-23T05:12:36;15.07;;;5.00;;
28960;SDS011;16068;42.896;20.868;2022-07-23T05:15:23;21.23;;;5.53;;
28960;SDS011;16068;42.896;20.868;2022-07-23T05:18:09;28.63;;;7.35;;
28960;SDS011;16068;42.896;20.868;2022-07-23T05:20:55;19.52;;;5.55;;
28960;SDS011;16068;42.896;20.868;2022-07-23T05:23:41;22.17;;;5.43;;
28960;SDS011;16068;42.896;20.868;2022-07-23T05:26:27;25.38;;;5.47;;
28960;SDS011;16068;42.896;20.868;2022-07-23T05:29:13;17.77;;;4.40;;
28960;SDS011;16068;42.896;20.868;2022-07-23T05:32:00;19.48;;;4.05;;
28960;SDS011;16068;42.896;20.868;2022-07-23T05:34:48;14.18;;;4.10;;
28960;SDS011;16068;42.896;20.868;2022-07-23T05:37:34;11.65;;;3.90;;
28960;SDS011;16068;42.896;20.868;2022-07-23T05:40:20;15.20;;;4.90;;
28960;SDS011;16068;42.896;20.868;2022-07-23T05:43:06;13.43;;;4.10;;
28960;SDS011;16068;42.896;20.868;2022-07-23T05:45:53;22.65;;;5.50;;
28960;SDS011;16068;42.896;20.868;2022-07-23T05:48:40;39.38;;;6.78;;
28960;SDS011;16068;42.896;20.868;2022-07-23T05:51:41;16.27;;;5.13;;
28960;SDS011;16068;42.896;20.868;2022-07-23T05:54:33;19.23;;;5.32;;
28960;SDS011;16068;42.896;20.868;2022-07-23T05:57:20;33.17;;;5.75;;
28960;SDS011;16068;42.896;20.868;2022-07-23T06:00:10;16.52;;;4.10;;
28960;SDS011;16068;42.896;20.868;2022-07-23T06:03:01;11.85;;;4.68;;
28960;SDS011;16068;42.896;20.868;2022-07-23T06:05:48;21.90;;;3.90;;
28960;SDS011;16068;42.896;20.868;2022-07-23T06:08:35;30.83;;;6.50;;
28960;SDS011;16068;42.896;20.868;2022-07-23T06:11:22;33.30;;;5.07;;
28960;SDS011;16068;42.896;20.868;2022-07-23T06:14:07;16.50;;;5.00;;
28960;SDS011;16068;42.896;20.868;2022-07-23T06:17:05;18.42;;;6.18;;
28960;SDS011;16068;42.896;20.868;2022-07-23T06:24:11;18.17;;;4.68;;
28960;SDS011;16068;42.896;20.868;2022-07-23T06:30:18;12.40;;;3.78;;
28960;SDS011;16068;42.896;20.868;2022-07-23T06:33:09;13.85;;;3.25;;
28960;SDS011;16068;42.896;20.868;2022-07-23T06:35:57;7.72;;;4.10;;
28960;SDS011;16068;42.896;20.868;2022-07-23T06:38:42;17.67;;;3.28;;
28960;SDS011;16068;42.896;20.868;2022-07-23T06:41:32;12.32;;;3.25;;
28960;SDS011;16068;42.896;20.868;2022-07-23T06:44:22;18.63;;;4.80;;
28960;SDS011;16068;42.896;20.868;2022-07-23T06:47:12;20.48;;;4.85;;
28960;SDS011;16068;42.896;20.868;2022-07-23T06:50:09;19.65;;;4.32;;
28960;SDS011;16068;42.896;20.868;2022-07-23T06:52:55;24.67;;;4.80;;
28960;SDS011;16068;42.896;20.868;2022-07-23T06:55:41;15.73;;;4.10;;
28960;SDS011;16068;42.896;20.868;2022-07-23T06:58:29;28.80;;;5.03;;
28960;SDS011;16068;42.896;20.868;2022-07-23T07:01:15;41.35;;;5.68;;
28960;SDS011;16068;42.896;20.868;2022-07-23T07:04:02;17.88;;;5.90;;
28960;SDS011;16068;42.896;20.868;2022-07-23T07:06:48;15.55;;;4.43;;
28960;SDS011;16068;42.896;20.868;2022-07-23T07:09:34;21.88;;;4.78;;
28960;SDS011;16068;42.896;20.868;2022-07-23T07:12:20;18.60;;;4.07;;
28960;SDS011;16068;42.896;20.868;2022-07-23T07:15:06;14.43;;;5.00;;
28960;SDS011;16068;42.896;20.868;2022-07-23T07:17:52;16.33;;;5.32;;
28960;SDS011;16068;42.896;20.868;2022-07-23T07:20:38;24.98;;;5.55;;
28960;SDS011;16068;42.896;20.868;2022-07-23T07:23:24;24.38;;;5.50;;
28960;SDS011;16068;42.896;20.868;2022-07-23T07:26:10;19.08;;;5.00;;
28960;SDS011;16068;42.896;20.868;2022-07-23T07:28:56;21.25;;;6.00;;
28960;SDS011;16068;42.896;20.868;2022-07-23T07:31:43;27.83;;;6.07;;
28960;SDS011;16068;42.896;20.868;2022-07-23T07:34:28;25.20;;;6.13;;
28960;SDS011;16068;42.896;20.868;2022-07-23T07:37:14;26.23;;;5.70;;
28960;SDS011;16068;42.896;20.868;2022-07-23T07:40:00;25.55;;;5.10;;
28960;SDS011;16068;42.896;20.868;2022-07-23T07:42:47;11.90;;;4.40;;
28960;SDS011;16068;42.896;20.868;2022-07-23T07:45:33;17.52;;;5.10;;
28960;SDS011;16068;42.896;20.868;2022-07-23T07:48:21;14.52;;;4.93;;
28960;SDS011;16068;42.896;20.868;2022-07-23T07:51:07;22.23;;;4.97;;
28960;SDS011;16068;42.896;20.868;2022-07-23T07:53:53;14.43;;;4.55;;
28960;SDS011;16068;42.896;20.868;2022-07-23T07:56:40;16.02;;;4.90;;
28960;SDS011;16068;42.896;20.868;2022-07-23T07:59:27;15.30;;;4.88;;
28960;SDS011;16068;42.896;20.868;2022-07-23T08:02:18;19.05;;;5.80;;
28960;SDS011;16068;42.896;20.868;2022-07-23T08:05:06;16.23;;;4.82;;
28960;SDS011;16068;42.896;20.868;2022-07-23T08:07:53;13.10;;;4.10;;
28960;SDS011;16068;42.896;20.868;2022-07-23T08:10:43;21.52;;;5.22;;
28960;SDS011;16068;42.896;20.868;2022-07-23T08:13:29;19.50;;;4.55;;
28960;SDS011;16068;42.896;20.868;2022-07-23T08:16:15;20.85;;;4.57;;
28960;SDS011;16068;42.896;20.868;2022-07-23T08:19:01;17.75;;;5.68;;
28960;SDS011;16068;42.896;20.868;2022-07-23T08:21:47;12.02;;;4.35;;
28960;SDS011;16068;42.896;20.868;2022-07-23T08:24:33;17.35;;;3.85;;
28960;SDS011;16068;42.896;20.868;2022-07-23T08:27:19;15.98;;;4.40;;
28960;SDS011;16068;42.896;20.868;2022-07-23T08:30:05;12.25;;;4.50;;
28960;SDS011;16068;42.896;20.868;2022-07-23T08:32:57;20.08;;;4.72;;
28960;SDS011;16068;42.896;20.868;2022-07-23T08:35:52;20.55;;;5.60;;
28960;SDS011;16068;42.896;20.868;2022-07-23T08:38:38;17.45;;;5.35;;
28960;SDS011;16068;42.896;20.868;2022-07-23T08:41:24;14.10;;;4.47;;
28960;SDS011;16068;42.896;20.868;2022-07-23T08:44:11;16.08;;;4.35;;
28960;SDS011;16068;42.896;20.868;2022-07-23T08:46:57;11.88;;;4.57;;
28960;SDS011;16068;42.896;20.868;2022-07-23T08:49:43;16.83;;;4.50;;
28960;SDS011;16068;42.896;20.868;2022-07-23T08:52:30;9.25;;;4.28;;
28960;SDS011;16068;42.896;20.868;2022-07-23T08:55:27;11.93;;;4.15;;
28960;SDS011;16068;42.896;20.868;2022-07-23T08:58:14;16.67;;;4.00;;
28960;SDS011;16068;42.896;20.868;2022-07-23T09:01:01;22.20;;;4.72;;
28960;SDS011;16068;42.896;20.868;2022-07-23T09:03:48;16.02;;;7.07;;
28960;SDS011;16068;42.896;20.868;2022-07-23T09:06:38;11.30;;;4.80;;
28960;SDS011;16068;42.896;20.868;2022-07-23T09:12:50;19.00;;;9.38;;
28960;SDS011;16068;42.896;20.868;2022-07-23T09:15:42;18.83;;;8.48;;
28960;SDS011;16068;42.896;20.868;2022-07-23T09:19:07;14.18;;;4.75;;
28960;SDS011;16068;42.896;20.868;2022-07-23T09:21:53;15.95;;;7.05;;
28960;SDS011;16068;42.896;20.868;2022-07-23T09:24:40;21.40;;;12.90;;
28960;SDS011;16068;42.896;20.868;2022-07-23T09:28:05;15.95;;;4.38;;
28960;SDS011;16068;42.896;20.868;2022-07-23T09:30:52;12.15;;;5.57;;
28960;SDS011;16068;42.896;20.868;2022-07-23T09:33:38;13.43;;;3.90;;
28960;SDS011;16068;42.896;20.868;2022-07-23T09:36:28;10.45;;;4.80;;
28960;SDS011;16068;42.896;20.868;2022-07-23T09:39:16;13.82;;;3.92;;
28960;SDS011;16068;42.896;20.868;2022-07-23T09:42:20;15.20;;;4.53;;
28960;SDS011;16068;42.896;20.868;2022-07-23T09:45:07;9.75;;;3.80;;
28960;SDS011;16068;42.896;20.868;2022-07-23T09:48:13;17.10;;;5.10;;
28960;SDS011;16068;42.896;20.868;2022-07-23T09:51:02;9.10;;;4.18;;
28960;SDS011;16068;42.896;20.868;2022-07-23T09:53:50;12.65;;;4.32;;
28960;SDS011;16068;42.896;20.868;2022-07-23T09:56:36;14.63;;;4.65;;
28960;SDS011;16068;42.896;20.868;2022-07-23T09:59:24;13.50;;;5.25;;
28960;SDS011;16068;42.896;20.868;2022-07-23T10:02:12;8.23;;;3.95;;
28960;SDS011;16068;42.896;20.868;2022-07-23T10:05:15;13.27;;;4.00;;
28960;SDS011;16068;42.896;20.868;2022-07-23T10:12:10;19.98;;;7.80;;
28960;SDS011;16068;42.896;20.868;2022-07-23T10:15:12;15.13;;;6.13;;
28960;SDS011;16068;42.896;20.868;2022-07-23T10:17:58;10.63;;;3.72;;
28960;SDS011;16068;42.896;20.868;2022-07-23T10:20:44;18.90;;;4.68;;
28960;SDS011;16068;42.896;20.868;2022-07-23T10:23:44;8.18;;;4.25;;
28960;SDS011;16068;42.896;20.868;2022-07-23T10:26:38;15.13;;;4.60;;
28960;SDS011;16068;42.896;20.868;2022-07-23T10:32:25;11.77;;;4.10;;
28960;SDS011;16068;42.896;20.868;2022-07-23T10:35:48;15.02;;;3.38;;
28960;SDS011;16068;42.896;20.868;2022-07-23T10:38:51;10.40;;;3.75;;
28960;SDS011;16068;42.896;20.868;2022-07-23T10:41:41;16.75;;;5.25;;
28960;SDS011;16068;42.896;20.868;2022-07-23T10:44:32;17.88;;;9.25;;
28960;SDS011;16068;42.896;20.868;2022-07-23T10:47:29;12.55;;;4.95;;
28960;SDS011;16068;42.896;20.868;2022-07-23T10:50:31;11.68;;;4.90;;
28960;SDS011;16068;42.896;20.868;2022-07-23T10:53:18;12.75;;;5.88;;
28960;SDS011;16068;42.896;20.868;2022-07-23T10:56:04;11.18;;;5.65;;
28960;SDS011;16068;42.896;20.868;2022-07-23T10:58:50;16.35;;;6.10;;
28960;SDS011;16068;42.896;20.868;2022-07-23T11:01:37;13.85;;;6.53;;
28960;SDS011;16068;42.896;20.868;2022-07-23T11:08:22;17.85;;;4.10;;
28960;SDS011;16068;42.896;20.868;2022-07-23T11:10:50;12.43;;;4.13;;
28960;SDS011;16068;42.896;20.868;2022-07-23T11:13:55;10.98;;;5.00;;
28960;SDS011;16068;42.896;20.868;2022-07-23T11:16:46;15.30;;;4.30;;
28960;SDS011;16068;42.896;20.868;2022-07-23T11:19:51;13.10;;;4.40;;
28960;SDS011;16068;42.896;20.868;2022-07-23T11:22:58;13.85;;;4.82;;
28960;SDS011;16068;42.896;20.868;2022-07-23T11:25:46;11.20;;;5.00;;
28960;SDS011;16068;42.896;20.868;2022-07-23T11:28:32;12.30;;;4.95;;
28960;SDS011;16068;42.896;20.868;2022-07-23T11:31:18;12.48;;;4.25;;
28960;SDS011;16068;42.896;20.868;2022-07-23T11:34:24;10.45;;;4.32;;
28960;SDS011;16068;42.896;20.868;2022-07-23T11:37:29;11.70;;;3.78;;
28960;SDS011;16068;42.896;20.868;2022-07-23T11:40:19;14.93;;;3.90;;
28960;SDS011;16068;42.896;20.868;2022-07-23T11:43:06;12.25;;;4.13;;
28960;SDS011;16068;42.896;20.868;2022-07-23T11:45:56;17.15;;;3.83;;
28960;SDS011;16068;42.896;20.868;2022-07-23T11:48:44;16.25;;;3.78;;
28960;SDS011;16068;42.896;20.868;2022-07-23T11:51:30;14.93;;;4.60;;
28960;SDS011;16068;42.896;20.868;2022-07-23T11:54:18;21.00;;;6.80;;
28960;SDS011;16068;42.896;20.868;2022-07-23T11:57:04;14.38;;;4.00;;
28960;SDS011;16068;42.896;20.868;2022-07-23T11:59:51;11.90;;;4.05;;
28960;SDS011;16068;42.896;20.868;2022-07-23T12:02:43;12.70;;;4.30;;
28960;SDS011;16068;42.896;20.868;2022-07-23T12:05:32;14.93;;;4.25;;
28960;SDS011;16068;42.896;20.868;2022-07-23T12:08:19;15.00;;;4.32;;
28960;SDS011;16068;42.896;20.868;2022-07-23T12:11:05;15.48;;;3.97;;
28960;SDS011;16068;42.896;20.868;2022-07-23T12:13:57;18.00;;;4.18;;
28960;SDS011;16068;42.896;20.868;2022-07-23T12:16:44;10.53;;;4.27;;
28960;SDS011;16068;42.896;20.868;2022-07-23T12:19:30;12.70;;;4.25;;
28960;SDS011;16068;42.896;20.868;2022-07-23T12:22:16;11.10;;;4.25;;
28960;SDS011;16068;42.896;20.868;2022-07-23T12:25:07;15.55;;;5.03;;
28960;SDS011;16068;42.896;20.868;2022-07-23T12:28:02;11.20;;;4.68;;
28960;SDS011;16068;42.896;20.868;2022-07-23T12:30:49;27.13;;;9.50;;
28960;SDS011;16068;42.896;20.868;2022-07-23T12:33:37;26.05;;;15.80;;
28960;SDS011;16068;42.896;20.868;2022-07-23T12:36:24;21.55;;;5.75;;
28960;SDS011;16068;42.896;20.868;2022-07-23T12:39:32;25.17;;;10.50;;
28960;SDS011;16068;42.896;20.868;2022-07-23T12:42:18;20.67;;;7.50;;
28960;SDS011;16068;42.896;20.868;2022-07-23T12:47:58;10.57;;;4.05;;
28960;SDS011;16068;42.896;20.868;2022-07-23T13:03:23;8.73;;;2.90;;
28960;SDS011;16068;42.896;20.868;2022-07-23T13:06:32;8.65;;;3.63;;
28960;SDS011;16068;42.896;20.868;2022-07-23T13:09:29;10.60;;;3.70;;
28960;SDS011;16068;42.896;20.868;2022-07-23T13:12:30;11.75;;;3.63;;
28960;SDS011;16068;42.896;20.868;2022-07-23T13:15:16;13.18;;;3.67;;
28960;SDS011;16068;42.896;20.868;2022-07-23T13:18:02;9.82;;;3.50;;
28960;SDS011;16068;42.896;20.868;2022-07-23T13:20:49;17.17;;;4.13;;
28960;SDS011;16068;42.896;20.868;2022-07-23T13:23:35;11.90;;;3.20;;
28960;SDS011;16068;42.896;20.868;2022-07-23T13:26:21;14.07;;;3.40;;
28960;SDS011;16068;42.896;20.868;2022-07-23T13:29:09;11.00;;;3.78;;
28960;SDS011;16068;42.896;20.868;2022-07-23T13:31:55;12.32;;;3.55;;
28960;SDS011;16068;42.896;20.868;2022-07-23T13:34:42;13.98;;;3.90;;
28960;SDS011;16068;42.896;20.868;2022-07-23T13:37:29;11.00;;;4.57;;
28960;SDS011;16068;42.896;20.868;2022-07-23T13:40:15;13.73;;;5.65;;
28960;SDS011;16068;42.896;20.868;2022-07-23T13:43:02;10.73;;;5.97;;
28960;SDS011;16068;42.896;20.868;2022-07-23T13:45:52;19.38;;;4.35;;
28960;SDS011;16068;42.896;20.868;2022-07-23T13:48:38;8.32;;;4.50;;
28960;SDS011;16068;42.896;20.868;2022-07-23T13:51:25;8.73;;;3.97;;
28960;SDS011;16068;42.896;20.868;2022-07-23T13:54:13;14.73;;;6.22;;
28960;SDS011;16068;42.896;20.868;2022-07-23T13:56:59;20.35;;;6.43;;
28960;SDS011;16068;42.896;20.868;2022-07-23T13:59:46;17.58;;;4.97;;
28960;SDS011;16068;42.896;20.868;2022-07-23T14:02:32;19.25;;;6.95;;
28960;SDS011;16068;42.896;20.868;2022-07-23T14:05:19;9.30;;;3.92;;
28960;SDS011;16068;42.896;20.868;2022-07-23T14:08:05;26.73;;;5.65;;
28960;SDS011;16068;42.896;20.868;2022-07-23T14:10:51;12.57;;;4.25;;
28960;SDS011;16068;42.896;20.868;2022-07-23T14:13:37;8.30;;;4.07;;
28960;SDS011;16068;42.896;20.868;2022-07-23T14:16:23;10.88;;;4.15;;
28960;SDS011;16068;42.896;20.868;2022-07-23T14:19:10;18.73;;;4.10;;
28960;SDS011;16068;42.896;20.868;2022-07-23T14:21:56;13.23;;;3.50;;
28960;SDS011;16068;42.896;20.868;2022-07-23T14:24:42;11.40;;;3.90;;
28960;SDS011;16068;42.896;20.868;2022-07-23T14:27:28;12.63;;;4.13;;
28960;SDS011;16068;42.896;20.868;2022-07-23T14:30:14;14.98;;;6.35;;
28960;SDS011;16068;42.896;20.868;2022-07-23T14:33:01;11.85;;;4.30;;
28960;SDS011;16068;42.896;20.868;2022-07-23T14:35:47;14.07;;;4.80;;
28960;SDS011;16068;42.896;20.868;2022-07-23T14:38:33;9.25;;;4.45;;
28960;SDS011;16068;42.896;20.868;2022-07-23T14:41:19;13.23;;;4.25;;
28960;SDS011;16068;42.896;20.868;2022-07-23T14:44:11;9.90;;;4.07;;
28960;SDS011;16068;42.896;20.868;2022-07-23T14:46:57;17.17;;;4.35;;
28960;SDS011;16068;42.896;20.868;2022-07-23T14:49:46;14.02;;;4.70;;
28960;SDS011;16068;42.896;20.868;2022-07-23T14:52:33;12.55;;;4.25;;
28960;SDS011;16068;42.896;20.868;2022-07-23T14:55:19;18.17;;;4.82;;
28960;SDS011;16068;42.896;20.868;2022-07-23T14:58:05;14.85;;;4.10;;
28960;SDS011;16068;42.896;20.868;2022-07-23T15:00:52;10.88;;;3.53;;
28960;SDS011;16068;42.896;20.868;2022-07-23T15:03:39;9.07;;;4.70;;
28960;SDS011;16068;42.896;20.868;2022-07-23T15:06:28;14.95;;;4.05;;
28960;SDS011;16068;42.896;20.868;2022-07-23T15:09:14;8.82;;;3.70;;
28960;SDS011;16068;42.896;20.868;2022-07-23T15:12:00;11.80;;;3.60;;
28960;SDS011;16068;42.896;20.868;2022-07-23T15:14:47;11.05;;;3.38;;
28960;SDS011;16068;42.896;20.868;2022-07-23T15:17:33;14.98;;;3.92;;
28960;SDS011;16068;42.896;20.868;2022-07-23T15:20:19;15.77;;;3.65;;
28960;SDS011;16068;42.896;20.868;2022-07-23T15:23:23;14.38;;;3.85;;
28960;SDS011;16068;42.896;20.868;2022-07-23T15:26:10;8.25;;;3.55;;
28960;SDS011;16068;42.896;20.868;2022-07-23T15:28:56;13.95;;;3.45;;
28960;SDS011;16068;42.896;20.868;2022-07-23T15:31:45;15.05;;;3.70;;
28960;SDS011;16068;42.896;20.868;2022-07-23T15:34:32;13.52;;;3.85;;
28960;SDS011;16068;42.896;20.868;2022-07-23T15:37:22;12.68;;;4.88;;
28960;SDS011;16068;42.896;20.868;2022-07-23T15:40:09;9.73;;;3.90;;
28960;SDS011;16068;42.896;20.868;2022-07-23T15:42:58;18.92;;;3.90;;
28960;SDS011;16068;42.896;20.868;2022-07-23T15:45:46;17.00;;;3.95;;
28960;SDS011;16068;42.896;20.868;2022-07-23T15:48:34;19.08;;;3.55;;
28960;SDS011;16068;42.896;20.868;2022-07-23T15:51:22;16.95;;;3.60;;
28960;SDS011;16068;42.896;20.868;2022-07-23T15:54:10;12.52;;;3.90;;
28960;SDS011;16068;42.896;20.868;2022-07-23T15:56:56;17.23;;;4.68;;
28960;SDS011;16068;42.896;20.868;2022-07-23T15:59:51;18.92;;;4.53;;
28960;SDS011;16068;42.896;20.868;2022-07-23T16:02:38;13.98;;;4.18;;
28960;SDS011;16068;42.896;20.868;2022-07-23T16:05:25;13.90;;;3.50;;
28960;SDS011;16068;42.896;20.868;2022-07-23T16:08:14;15.27;;;4.07;;
28960;SDS011;16068;42.896;20.868;2022-07-23T16:11:00;19.15;;;4.30;;
28960;SDS011;16068;42.896;20.868;2022-07-23T16:13:46;20.50;;;4.03;;
28960;SDS011;16068;42.896;20.868;2022-07-23T16:16:33;14.30;;;4.05;;
28960;SDS011;16068;42.896;20.868;2022-07-23T16:19:19;11.27;;;3.72;;
28960;SDS011;16068;42.896;20.868;2022-07-23T16:22:05;18.80;;;3.67;;
28960;SDS011;16068;42.896;20.868;2022-07-23T16:24:51;18.35;;;3.97;;
28960;SDS011;16068;42.896;20.868;2022-07-23T16:27:37;10.73;;;4.15;;
28960;SDS011;16068;42.896;20.868;2022-07-23T16:30:24;13.25;;;4.15;;
28960;SDS011;16068;42.896;20.868;2022-07-23T16:33:10;20.45;;;4.32;;
28960;SDS011;16068;42.896;20.868;2022-07-23T16:35:58;16.40;;;4.20;;
28960;SDS011;16068;42.896;20.868;2022-07-23T16:38:44;15.65;;;3.80;;
28960;SDS011;16068;42.896;20.868;2022-07-23T16:41:30;19.77;;;4.18;;
28960;SDS011;16068;42.896;20.868;2022-07-23T16:44:16;14.55;;;3.85;;
28960;SDS011;16068;42.896;20.868;2022-07-23T16:47:03;16.90;;;4.40;;
28960;SDS011;16068;42.896;20.868;2022-07-23T16:49:49;16.90;;;3.85;;
28960;SDS011;16068;42.896;20.868;2022-07-23T16:52:35;15.82;;;5.13;;
28960;SDS011;16068;42.896;20.868;2022-07-23T16:55:22;17.08;;;4.45;;
28960;SDS011;16068;42.896;20.868;2022-07-23T16:58:08;20.50;;;5.15;;
28960;SDS011;16068;42.896;20.868;2022-07-23T17:00:54;48.50;;;9.98;;
28960;SDS011;16068;42.896;20.868;2022-07-23T17:03:40;86.78;;;17.55;;